Time;durP1;ratioP1;P1;durP2;ratioP2;P2;SDS_P1;SDS_P2;PMS_P1;PMS_P2;Temp;Humidity;BMP_temperature;BMP_pressure;BME280_temperature;BME280_humidity;BME280_pressure;Samples;Min_cycle;Max_cycle;Signal;HPM_P1;HPM_P2
2024/02/16 00:07:59;;;;;;;65.50;34.80;;;;;;;12.02;100.00;100805.03;681988;1259;139258;-82
2024/02/16 00:23:02;;;;;;;73.70;38.60;;;;;;;11.95;100.00;100809.45;682287;1264;140347;-80
2024/02/16 00:38:07;;;;;;;64.60;36.40;;;;;;;11.87;100.00;100810.08;682157;1264;139191;-82
2024/02/16 00:53:10;;;;;;;70.30;36.90;;;;;;;11.97;100.00;100808.27;682039;1261;139036;-81
2024/02/16 01:08:14;;;;;;;73.10;39.20;;;;;;;11.95;100.00;100800.50;681997;1265;139738;-79
2024/02/16 01:23:18;;;;;;;65.40;35.50;;;;;;;12.03;100.00;100800.48;682157;1264;139182;-80
2024/02/16 01:38:22;;;;;;;70.00;36.70;;;;;;;12.13;100.00;100794.27;682082;1275;140050;-79
2024/02/16 01:53:26;;;;;;;70.70;37.30;;;;;;;12.07;100.00;100796.69;682045;1262;139837;-80
2024/02/16 02:08:29;;;;;;;67.50;37.00;;;;;;;12.07;100.00;100785.27;682018;1264;139236;-80
2024/02/16 02:23:33;;;;;;;76.50;40.20;;;;;;;12.05;100.00;100781.98;682189;1261;142674;-80
2024/02/16 02:38:37;;;;;;;73.50;39.00;;;;;;;11.92;100.00;100770.79;682010;1263;139302;-80
2024/02/16 02:53:41;;;;;;;73.20;36.50;;;;;;;11.94;100.00;100764.63;682014;1263;138877;-81
2024/02/16 03:08:44;;;;;;;69.70;36.00;;;;;;;12.02;100.00;100768.25;681864;1261;139060;-80
2024/02/16 03:23:49;;;;;;;69.00;38.60;;;;;;;11.92;100.00;100760.77;682234;1264;139290;-81
2024/02/16 03:38:52;;;;;;;86.80;47.00;;;;;;;11.77;100.00;100756.77;681993;1266;139945;-80
2024/02/16 03:53:56;;;;;;;74.10;40.10;;;;;;;11.79;100.00;100759.23;681904;1263;139962;-80
2024/02/16 04:08:59;;;;;;;63.60;37.20;;;;;;;11.81;100.00;100757.52;682066;1261;139291;-81
2024/02/16 04:24:03;;;;;;;59.90;33.70;;;;;;;11.80;100.00;100760.52;682136;1264;139048;-80
2024/02/16 04:39:07;;;;;;;78.50;35.30;;;;;;;11.72;100.00;100755.49;681973;1264;140023;-80
2024/02/16 04:54:10;;;;;;;76.60;39.70;;;;;;;11.61;100.00;100746.81;682086;1264;139220;-80
2024/02/16 05:09:16;;;;;;;72.80;39.40;;;;;;;11.61;100.00;100744.11;681995;1267;139633;-80
2024/02/16 05:24:21;;;;;;;98.20;49.50;;;;;;;11.51;100.00;100753.26;682163;1263;139371;-81
2024/02/16 05:39:31;;;;;;;61.30;32.10;;;;;;;11.45;100.00;100756.83;681853;1262;139133;-80
2024/02/16 05:54:36;;;;;;;57.30;34.80;;;;;;;11.47;100.00;100760.24;681899;1259;139936;-80
2024/02/16 06:09:41;;;;;;;54.40;30.10;;;;;;;11.43;100.00;100768.60;681953;1265;139073;-81
2024/02/16 06:24:44;;;;;;;49.70;28.00;;;;;;;11.32;100.00;100781.96;682228;1265;140466;-80
2024/02/16 06:39:49;;;;;;;53.50;28.70;;;;;;;11.34;100.00;100786.29;681772;1264;139328;-80
2024/02/16 06:54:53;;;;;;;62.00;36.80;;;;;;;11.35;99.98;100795.16;681966;1263;139170;-80
2024/02/16 07:09:57;;;;;;;60.90;32.40;;;;;;;11.29;99.76;100782.02;681962;1263;139690;-80
2024/02/16 07:25:00;;;;;;;64.30;34.90;;;;;;;11.31;99.41;100783.09;682090;1265;139731;-81
2024/02/16 07:40:09;;;;;;;56.30;32.40;;;;;;;11.28;99.30;100783.12;681896;1264;139538;-81
2024/02/16 07:55:13;;;;;;;97.40;40.50;;;;;;;11.33;98.43;100784.64;682019;1264;139287;-81
2024/02/16 08:10:21;;;;;;;59.40;29.40;;;;;;;11.42;97.31;100777.63;682089;1264;139210;-81
2024/02/16 08:25:27;;;;;;;;;;;;;;;11.72;95.97;100784.00;682157;1260;139066;-81
2024/02/16 08:40:30;;;;;;;55.60;28.10;;;;;;;12.22;94.67;100798.90;681882;1265;125042;-81
2024/02/16 08:55:35;;;;;;;78.00;33.90;;;;;;;12.27;93.54;100797.29;682084;1260;138857;-81
2024/02/16 09:10:40;;;;;;;141.60;39.20;;;;;;;12.33;93.02;100801.10;681945;1266;139004;-80
2024/02/16 09:25:45;;;;;;;50.00;23.70;;;;;;;12.59;93.24;100782.92;682084;1263;140005;-81
2024/02/16 09:40:50;;;;;;;130.10;41.40;;;;;;;13.15;92.22;100757.31;681893;1260;139261;-80
2024/02/16 09:55:54;;;;;;;38.50;22.50;;;;;;;13.77;91.08;100746.57;682112;1266;139591;-80
2024/02/16 10:11:04;;;;;;;34.00;20.70;;;;;;;15.29;88.03;100730.38;682181;1264;139268;-81
2024/02/16 10:26:08;;;;;;;40.20;20.50;;;;;;;16.59;80.08;100721.11;681786;1264;139453;-82
2024/02/16 10:41:12;;;;;;;29.00;18.50;;;;;;;17.05;75.14;100700.61;682023;1261;139976;-80
2024/02/16 10:56:15;;;;;;;43.10;22.40;;;;;;;17.02;73.66;100690.46;681964;1267;140076;-81
2024/02/16 11:11:25;;;;;;;26.20;16.80;;;;;;;17.54;71.64;100686.31;682128;1260;139105;-81
2024/02/16 11:26:29;;;;;;;32.70;19.10;;;;;;;16.90;70.16;100662.95;681781;1263;174498;-80
2024/02/16 11:41:32;;;;;;;34.40;19.90;;;;;;;17.06;70.59;100643.59;681954;1260;138612;-79
2024/02/16 11:56:39;;;;;;;32.00;19.20;;;;;;;16.88;69.64;100626.94;681792;1273;138799;-80
2024/02/16 12:11:43;;;;;;;40.50;23.50;;;;;;;17.05;70.14;100611.10;682107;1265;139035;-81
2024/02/16 12:26:46;;;;;;;29.30;15.90;;;;;;;17.25;70.93;100591.61;681743;1264;139741;-82
2024/02/16 12:41:51;;;;;;;26.30;15.60;;;;;;;16.55;70.70;100576.71;681931;1266;139406;-80
2024/02/16 12:56:56;;;;;;;27.20;15.20;;;;;;;16.66;70.22;100559.52;681964;1264;139973;-80
2024/02/16 13:12:01;;;;;;;45.10;23.90;;;;;;;16.83;69.94;100540.52;682166;1264;139901;-80
2024/02/16 13:27:05;;;;;;;23.00;13.20;;;;;;;16.90;69.88;100532.74;682022;1262;139934;-80
2024/02/16 13:42:10;;;;;;;21.10;13.30;;;;;;;16.79;70.56;100514.11;682025;1274;139104;-79
2024/02/16 13:57:16;;;;;;;20.30;13.40;;;;;;;16.57;71.28;100505.08;682012;1262;139794;-80
2024/02/16 14:12:23;;;;;;;21.50;13.20;;;;;;;16.28;71.83;100499.73;682176;1263;139333;-79
2024/02/16 14:27:32;;;;;;;24.50;13.30;;;;;;;16.27;72.10;100503.08;681964;1262;139910;-80
2024/02/16 14:42:37;;;;;;;21.60;12.30;;;;;;;16.34;72.61;100500.89;682072;1264;139280;-81
2024/02/16 14:57:41;;;;;;;24.20;12.60;;;;;;;15.95;73.49;100481.89;681983;1275;139045;-80
2024/02/16 15:12:45;;;;;;;22.70;14.70;;;;;;;15.63;74.31;100465.40;682116;1263;140733;-81
2024/02/16 15:27:50;;;;;;;24.50;15.80;;;;;;;15.24;75.38;100459.27;681980;1261;139876;-81
2024/02/16 15:43:06;;;;;;;21.30;14.30;;;;;;;15.05;75.87;100462.10;682168;1261;139896;-80
2024/02/16 15:58:10;;;;;;;94.50;53.60;;;;;;;14.75;76.85;100464.48;681995;1261;140479;-80
2024/02/16 16:13:14;;;;;;;33.00;19.60;;;;;;;14.62;76.66;100466.55;682059;1265;139817;-80
2024/02/16 16:28:19;;;;;;;90.60;48.00;;;;;;;14.50;76.93;100465.95;681982;1264;139135;-81
2024/02/16 16:43:23;;;;;;;41.20;21.70;;;;;;;14.43;76.90;100477.27;682088;1260;139413;-82
2024/02/16 16:58:27;;;;;;;63.10;29.20;;;;;;;14.18;77.46;100484.48;682072;1261;139677;-82
2024/02/16 17:13:35;;;;;;;113.60;39.00;;;;;;;13.99;78.32;100475.54;682205;1263;139173;-80
2024/02/16 17:28:39;;;;;;;89.40;37.60;;;;;;;13.85;78.94;100470.17;681994;1263;140746;-82
2024/02/16 17:43:44;;;;;;;56.40;26.40;;;;;;;13.77;79.26;100472.81;682258;1260;140032;-82
2024/02/16 17:58:48;;;;;;;60.90;28.10;;;;;;;13.68;80.35;100462.83;682049;1260;140083;-82
2024/02/16 18:13:55;;;;;;;68.30;29.20;;;;;;;13.80;80.25;100461.30;682007;1264;139257;-81
2024/02/16 18:28:59;;;;;;;62.30;32.20;;;;;;;13.80;80.26;100445.90;682034;1265;139147;-81
2024/02/16 18:44:02;;;;;;;42.40;23.10;;;;;;;13.99;79.56;100450.84;682141;1264;139641;-82
2024/02/16 18:59:08;;;;;;;38.60;20.50;;;;;;;13.95;79.47;100445.83;682202;1262;139976;-82
2024/02/16 19:14:11;;;;;;;33.10;19.40;;;;;;;13.94;79.60;100447.34;681852;1262;139095;-82
2024/02/16 19:29:15;;;;;;;33.90;18.60;;;;;;;13.96;79.41;100439.67;682011;1264;139657;-82
2024/02/16 19:44:21;;;;;;;45.90;30.10;;;;;;;13.91;79.43;100425.99;682040;1264;138975;-84
2024/02/16 19:59:25;;;;;;;31.10;16.20;;;;;;;13.80;79.20;100412.48;682071;1264;140012;-82
2024/02/16 20:14:29;;;;;;;23.80;14.70;;;;;;;13.79;79.76;100403.29;681857;1264;139156;-83
2024/02/16 20:29:33;;;;;;;25.60;13.60;;;;;;;13.71;79.56;100395.27;682055;1264;139795;-84
2024/02/16 20:44:37;;;;;;;30.00;16.40;;;;;;;13.69;79.39;100395.96;682054;1264;139984;-84
2024/02/16 20:59:40;;;;;;;33.70;16.40;;;;;;;13.59;79.47;100390.48;681784;1264;139225;-83
2024/02/16 21:14:46;;;;;;;31.60;16.60;;;;;;;13.49;79.77;100384.24;681479;1265;140544;-83
2024/02/16 21:29:51;;;;;;;25.30;15.00;;;;;;;13.35;79.90;100379.82;681922;1264;139673;-82
2024/02/16 21:44:55;;;;;;;22.60;12.50;;;;;;;13.32;80.26;100379.04;681972;1263;140362;-82
2024/02/16 22:00:00;;;;;;;23.60;12.50;;;;;;;13.40;79.99;100373.72;682035;1264;139008;-80
2024/02/16 22:15:07;;;;;;;26.30;14.30;;;;;;;13.28;80.11;100367.43;681734;1260;139251;-81
2024/02/16 22:30:12;;;;;;;24.60;12.60;;;;;;;13.26;80.33;100364.71;682033;1266;139198;-82
2024/02/16 22:45:15;;;;;;;21.50;12.00;;;;;;;12.77;82.96;100361.02;681957;1262;139240;-82
2024/02/16 23:00:23;;;;;;;23.30;12.70;;;;;;;12.41;86.83;100363.36;681722;1264;139243;-82
2024/02/16 23:15:27;;;;;;;22.60;12.00;;;;;;;12.32;88.12;100351.76;681702;1265;139159;-83
2024/02/16 23:30:32;;;;;;;19.40;10.70;;;;;;;12.43;88.31;100353.86;681900;1266;223267;-82
2024/02/16 23:45:35;;;;;;;21.20;11.10;;;;;;;12.50;87.78;100358.61;681729;1261;141839;-83
